This is the latest recevied weather packets stored in our database for station/object SPDRWX. If no packets are shown the sender has not sent any weather packets the latest 1 day(s).
| Time | Temp. | Humidity | Pressure | Rain* | Wind** | Luminosity | Snow |
|---|---|---|---|---|---|---|---|
| 1778044708 | 7.22° C | 74% | 1012.7 hPa | 0.51 mm | - | - | - |
| 1778043505 | 7.78° C | 74% | 1012.5 hPa | 0.51 mm | - | - | - |
| 1778042904 | 7.78° C | 73% | 1012.5 hPa | 0.51 mm | - | - | - |
| 1778042600 | 7.78° C | 73% | 1012.5 hPa | 0.51 mm | - | - | - |
| 1778041093 | 7.78° C | 74% | 1012.4 hPa | 0.51 mm | - | - | - |
| 1778040793 | 7.78° C | 74% | 1012.3 hPa | 0.51 mm | - | - | - |
| 1778040190 | 7.22° C | 74% | 1012.3 hPa | 0.51 mm | - | - | - |
| 1778039297 | 7.22° C | 73% | 1012.2 hPa | 0.51 mm | - | - | - |
| 1778038984 | 7.22° C | 72% | 1012.1 hPa | 0.51 mm | - | - | - |
| 1778037779 | 7.78° C | 70% | 1012 hPa | 0.51 mm | - | - | - |
| 1778037176 | 8.33° C | 67% | 1011.9 hPa | 0.51 mm | - | - | - |
| 1778035971 | 9.44° C | 66% | 1011.7 hPa | 0.51 mm | - | - | - |
| 1778035369 | 9.44° C | 65% | 1011.5 hPa | 0.51 mm | - | - | - |
| 1778035067 | 9.44° C | 65% | 1011.7 hPa | 0.51 mm | - | - | - |
| 1778034765 | 9.44° C | 65% | 1011.6 hPa | 0.51 mm | - | - | - |
| 1778034163 | 10° C | 64% | 1011.5 hPa | 0.51 mm | - | - | - |
| 1778033266 | 10° C | 64% | 1011.5 hPa | 0.51 mm | - | - | - |
| 1778032959 | 10.56° C | 63% | 1011.3 hPa | 0.51 mm | - | - | - |
| 1778031212 | 10.56° C | 64% | 1011 hPa | 0.51 mm | - | - | - |
| 1778030606 | 10.56° C | 63% | 1011.1 hPa | 0.51 mm | - | - | - |
| 1778030006 | 10.56° C | 63% | 1011 hPa | 0.51 mm | - | - | - |
| 1778028800 | 10.56° C | 63% | 1010.9 hPa | 0.51 mm | - | - | - |
| 1778027895 | 10.56° C | 62% | 1010.9 hPa | 0.51 mm | - | - | - |
| 1778026087 | 12.22° C | 59% | 1010.7 hPa | 0.51 mm | - | - | - |
| 1778023375 | 11.67° C | 61% | 1010.5 hPa | 0.51 mm | - | - | - |
* Rain since midnight (hover to see other rain measurements)
** Current wind speed in m/s (hover to see current wind gust speed)